Marchicora — V2OQ7 — position and weather

sailwx.info

Track history (hours):
 
Tides and Currents Weather Stations Pressure Air Temp Water Temp Dewpoint Dewpoint Depression Visibility Wind Speed Wind Dir Waves Ship Positions

Marchicora

Last reported at 2014-Sep-25 20:18 UTC. Time now 2014-Oct-02 16:38 UTC.
Position N 36°20' E 014°31'.

Length 153 m; draft 9.8 m.

Type: Cargo ship. MMSI: 304653000.

Date/timePositionNaut miles runAvg speedWind from/ knotsBaromVisibWave heightAir tempDewpointWater temp
2014-Sep-25 20:18N 36°20' E 014°31'1113.6
2014-Sep-25 19:30N 36°26' E 014°19'1413.4
2014-Sep-25 18:26N 36°33' E 014°04'1213.5
2014-Sep-25 17:33N 36°40' E 013°52'1313.2
2014-Sep-25 16:33N 36°48' E 013°39'  
2014-Sep-22 17:33N 35°59' W 005°18'17913.5
2014-Sep-22 04:15N 36°29' W 008°57'9912.0
2014-Sep-21 20:04N 37°57' W 009°53'  
2014-Sep-18 21:04N 50°15' W 001°26'814.5
2014-Sep-18 20:33N 50°17' W 001°15'1713.7
2014-Sep-18 19:19N 50°22' W 000°49'1012.7
2014-Sep-18 18:33N 50°25' W 000°35'1212.4
2014-Sep-18 17:33N 50°28' W 000°16'1212.2
2014-Sep-18 16:33N 50°32' E 000°03'1212.0
2014-Sep-18 15:33N 50°35' E 000°21'1212.3
2014-Sep-18 14:33N 50°40' E 000°39'1313.2
2014-Sep-18 13:33N 50°47' E 000°56'1413.6
2014-Sep-18 12:33N 50°56' E 001°12'1313.4
2014-Sep-18 11:33N 51°04' E 001°29'1312.8
2014-Sep-18 10:33N 51°13' E 001°44'1212.3
2014-Sep-18 09:33N 51°23' E 001°54'1212.1
2014-Sep-18 08:33N 51°33' E 002°06'1212.5
2014-Sep-18 07:34N 51°42' E 002°19'1212.5
2014-Sep-18 06:33N 51°52' E 002°32'1313.3
2014-Sep-18 05:33N 52°02' E 002°46'1413.7
2014-Sep-18 04:33N 52°12' E 003°01'1413.5
2014-Sep-18 03:33N 52°25' E 003°07'1413.8
2014-Sep-18 02:33N 52°39' E 003°11'1413.5
2014-Sep-18 01:32N 52°52' E 003°15'1812.7
2014-Sep-18 00:08N 53°09' E 003°24'2212.1
2014-Sep-17 22:20N 53°30' E 003°34'4712.3
2014-Sep-17 18:33N 54°08' E 004°21'15012.5
2014-Sep-17 06:33N 56°19' E 006°30'2512.6
2014-Sep-17 04:32N 56°40' E 006°54'1312.8
2014-Sep-17 03:31N 56°52' E 007°05'9012.9
2014-Sep-16 20:33N 57°45' E 009°19'4312.9
2014-Sep-16 17:14N 57°51' E 010°39'811.2
2014-Sep-16 16:33N 57°45' E 010°48'7 5.0
2014-Sep-16 15:10N 57°42' E 010°37'0 0.0
2014-Sep-16 12:31N 57°42' E 010°36'0 0.0
2014-Sep-16 10:22N 57°42' E 010°36'0 0.0
2014-Sep-16 09:16N 57°42' E 010°36'0 0.0
2014-Sep-16 08:25N 57°42' E 010°36'0 0.1
2014-Sep-16 07:30N 57°42' E 010°37'5 5.2
2014-Sep-16 06:33N 57°41' E 010°46'1212.6
2014-Sep-16 05:34N 57°37' E 011°08'1413.7
2014-Sep-16 04:33N 57°28' E 011°27'1414.0
2014-Sep-16 03:33N 57°15' E 011°37'1414.0
2014-Sep-16 02:33N 57°02' E 011°45'1313.5
2014-Sep-16 01:33N 56°49' E 011°54'1211.8
2014-Sep-16 00:33N 56°38' E 011°47'1312.7
2014-Sep-15 23:33N 56°27' E 011°35'1312.3
2014-Sep-15 22:31N 56°16' E 011°23'2813.3
2014-Sep-15 20:25N 55°53' E 010°55'  
Track history (hours):
 
Tides and Currents Weather Stations Pressure Air Temp Water Temp Dewpoint Dewpoint Depression Visibility Wind Speed Wind Dir Waves Ship Positions

Marchicora

Last reported at 2014-Sep-25 20:18 UTC. Time now 2014-Oct-02 16:38 UTC.
Position N 36°20' E 014°31'.

Length 153 m; draft 9.8 m.

Type: Cargo ship. MMSI: 304653000.

Date/timePositionNaut miles runAvg speedWind from/ knotsBaromVisibWave heightAir tempDewpointWater temp
2014-Sep-25 20:18N 36°20' E 014°31'1113.6
2014-Sep-25 19:30N 36°26' E 014°19'1413.4
2014-Sep-25 18:26N 36°33' E 014°04'1213.5
2014-Sep-25 17:33N 36°40' E 013°52'1313.2
2014-Sep-25 16:33N 36°48' E 013°39'  
2014-Sep-22 17:33N 35°59' W 005°18'17913.5
2014-Sep-22 04:15N 36°29' W 008°57'9912.0
2014-Sep-21 20:04N 37°57' W 009°53'  
2014-Sep-18 21:04N 50°15' W 001°26'814.5
2014-Sep-18 20:33N 50°17' W 001°15'1713.7
2014-Sep-18 19:19N 50°22' W 000°49'1012.7
2014-Sep-18 18:33N 50°25' W 000°35'1212.4
2014-Sep-18 17:33N 50°28' W 000°16'1212.2
2014-Sep-18 16:33N 50°32' E 000°03'1212.0
2014-Sep-18 15:33N 50°35' E 000°21'1212.3
2014-Sep-18 14:33N 50°40' E 000°39'1313.2
2014-Sep-18 13:33N 50°47' E 000°56'1413.6
2014-Sep-18 12:33N 50°56' E 001°12'1313.4
2014-Sep-18 11:33N 51°04' E 001°29'1312.8
2014-Sep-18 10:33N 51°13' E 001°44'1212.3
2014-Sep-18 09:33N 51°23' E 001°54'1212.1
2014-Sep-18 08:33N 51°33' E 002°06'1212.5
2014-Sep-18 07:34N 51°42' E 002°19'1212.5
2014-Sep-18 06:33N 51°52' E 002°32'1313.3
2014-Sep-18 05:33N 52°02' E 002°46'1413.7
2014-Sep-18 04:33N 52°12' E 003°01'1413.5
2014-Sep-18 03:33N 52°25' E 003°07'1413.8
2014-Sep-18 02:33N 52°39' E 003°11'1413.5
2014-Sep-18 01:32N 52°52' E 003°15'1812.7
2014-Sep-18 00:08N 53°09' E 003°24'2212.1
2014-Sep-17 22:20N 53°30' E 003°34'4712.3
2014-Sep-17 18:33N 54°08' E 004°21'15012.5
2014-Sep-17 06:33N 56°19' E 006°30'2512.6
2014-Sep-17 04:32N 56°40' E 006°54'1312.8
2014-Sep-17 03:31N 56°52' E 007°05'9012.9
2014-Sep-16 20:33N 57°45' E 009°19'4312.9
2014-Sep-16 17:14N 57°51' E 010°39'811.2
2014-Sep-16 16:33N 57°45' E 010°48'7 5.0
2014-Sep-16 15:10N 57°42' E 010°37'0 0.0
2014-Sep-16 12:31N 57°42' E 010°36'0 0.0
2014-Sep-16 10:22N 57°42' E 010°36'0 0.0
2014-Sep-16 09:16N 57°42' E 010°36'0 0.0
2014-Sep-16 08:25N 57°42' E 010°36'0 0.1
2014-Sep-16 07:30N 57°42' E 010°37'5 5.2
2014-Sep-16 06:33N 57°41' E 010°46'1212.6
2014-Sep-16 05:34N 57°37' E 011°08'1413.7
2014-Sep-16 04:33N 57°28' E 011°27'1414.0
2014-Sep-16 03:33N 57°15' E 011°37'1414.0
2014-Sep-16 02:33N 57°02' E 011°45'1313.5
2014-Sep-16 01:33N 56°49' E 011°54'1211.8
2014-Sep-16 00:33N 56°38' E 011°47'1312.7
2014-Sep-15 23:33N 56°27' E 011°35'1312.3
2014-Sep-15 22:31N 56°16' E 011°23'2813.3
2014-Sep-15 20:25N 55°53' E 010°55'  

Dump ship's entire track history